createdAt,value
2023-06-28T00:01:15.042Z,64.35
2023-06-28T00:04:01.578Z,62.45
2023-06-28T00:06:28.598Z,58.49
2023-06-28T00:08:55.199Z,59.60
2023-06-28T00:11:21.792Z,61.86
2023-06-28T00:13:48.444Z,66.08
2023-06-28T00:16:15.511Z,64.77
2023-06-28T00:18:43.795Z,61.76
2023-06-28T00:21:13.933Z,58.77
2023-06-28T00:23:41.551Z,60.15
2023-06-28T00:26:08.190Z,63.74
2023-06-28T00:28:34.892Z,63.00
2023-06-28T00:31:02.012Z,61.37
2023-06-28T00:33:28.708Z,59.06
2023-06-28T00:35:55.294Z,60.10
2023-06-28T00:38:21.911Z,63.28
2023-06-28T00:40:48.897Z,64.23
2023-06-28T00:43:15.489Z,62.59
2023-06-28T00:45:43.200Z,58.74
2023-06-28T00:48:10.435Z,57.81
2023-06-28T00:50:37.980Z,59.25
2023-06-28T00:53:05.455Z,64.21
2023-06-28T00:55:32.082Z,63.94
2023-06-28T00:57:58.947Z,60.92
2023-06-28T01:00:27.075Z,57.98
2023-06-28T01:02:53.893Z,57.94
2023-06-28T01:05:20.994Z,61.30
2023-06-28T01:07:52.407Z,65.64
2023-06-28T01:10:20.346Z,64.21
2023-06-28T01:12:48.151Z,61.68
2023-06-28T01:15:15.232Z,58.24
2023-06-28T01:17:42.187Z,57.83
2023-06-28T01:20:09.551Z,61.31
2023-06-28T01:22:41.018Z,65.41
2023-06-28T01:25:10.551Z,64.78
2023-06-28T01:27:40.764Z,61.66
2023-06-28T01:30:11.558Z,58.25
2023-06-28T01:32:38.247Z,56.62
2023-06-28T01:35:05.993Z,59.64
2023-06-28T01:37:33.168Z,64.86
2023-06-28T01:40:01.050Z,64.10
2023-06-28T01:42:28.184Z,63.12
2023-06-28T01:44:54.851Z,61.11
2023-06-28T01:47:21.560Z,57.93
2023-06-28T01:49:48.544Z,56.46
2023-06-28T01:52:15.900Z,58.80
2023-06-28T01:54:42.499Z,63.47
2023-06-28T01:57:09.043Z,64.72
2023-06-28T01:59:36.433Z,61.52
2023-06-28T02:02:03.818Z,56.69
2023-06-28T02:04:32.750Z,55.50
2023-06-28T02:07:00.117Z,59.02
2023-06-28T02:09:26.790Z,62.35
2023-06-28T02:11:53.369Z,64.64
2023-06-28T02:14:19.918Z,61.84
2023-06-28T02:16:46.544Z,57.46
2023-06-28T02:19:16.960Z,56.06
2023-06-28T02:21:44.571Z,57.60
2023-06-28T02:24:11.140Z,63.03
2023-06-28T02:26:39.379Z,65.28
2023-06-28T02:29:06.055Z,61.73
2023-06-28T02:31:32.696Z,57.90
2023-06-28T02:33:59.385Z,57.31
2023-06-28T02:36:25.950Z,58.98
2023-06-28T02:38:52.893Z,63.89
2023-06-28T02:41:19.488Z,66.14
2023-06-28T02:43:46.105Z,62.21
2023-06-28T02:46:13.203Z,58.49
2023-06-28T02:48:40.001Z,58.03
2023-06-28T02:51:06.625Z,60.72
2023-06-28T02:53:33.310Z,63.73
2023-06-28T02:55:59.969Z,64.85
2023-06-28T02:58:55.518Z,63.37
2023-06-28T03:01:22.460Z,58.27
2023-06-28T03:03:49.242Z,58.41
2023-06-28T03:06:16.033Z,60.88
2023-06-28T03:08:42.660Z,65.26
2023-06-28T03:11:09.277Z,67.20
2023-06-28T03:13:35.892Z,64.09
2023-06-28T03:16:02.516Z,62.05
2023-06-28T03:18:29.540Z,59.44
2023-06-28T03:20:56.838Z,59.64
2023-06-28T03:23:23.391Z,63.78
2023-06-28T03:25:50.291Z,63.92
2023-06-28T03:28:17.056Z,61.10
2023-06-28T03:30:43.834Z,58.33
2023-06-28T03:33:10.764Z,59.28
2023-06-28T03:35:37.387Z,63.40
2023-06-28T03:38:04.102Z,63.73
2023-06-28T03:40:30.758Z,61.58
2023-06-28T03:42:57.445Z,58.97
2023-06-28T03:45:24.074Z,60.04
2023-06-28T03:47:50.745Z,64.32
2023-06-28T03:50:17.480Z,64.74
2023-06-28T03:52:44.053Z,61.57
2023-06-28T03:55:12.638Z,59.06
2023-06-28T03:57:40.690Z,57.73
2023-06-28T04:00:10.741Z,61.17
2023-06-28T04:02:41.455Z,65.18
2023-06-28T04:05:08.961Z,64.86
2023-06-28T04:07:35.707Z,61.22
2023-06-28T04:10:03.850Z,58.04
2023-06-28T04:12:30.514Z,58.20
2023-06-28T04:14:57.128Z,60.24
2023-06-28T04:17:23.770Z,64.35
2023-06-28T04:19:50.467Z,62.51
2023-06-28T04:22:17.201Z,59.59
2023-06-28T04:24:43.828Z,57.82
2023-06-28T04:27:10.441Z,60.85
2023-06-28T04:29:36.989Z,63.85
2023-06-28T04:32:19.819Z,61.54
2023-06-28T04:34:46.671Z,57.08
2023-06-28T04:37:16.068Z,58.78
2023-06-28T04:39:44.445Z,61.71
2023-06-28T04:42:14.971Z,61.37
2023-06-28T04:44:47.585Z,57.70
2023-06-28T04:47:17.885Z,59.86
2023-06-28T04:49:49.478Z,63.64
2023-06-28T04:52:19.450Z,60.56
2023-06-28T04:54:46.801Z,56.70
2023-06-28T04:57:14.848Z,58.90
2023-06-28T04:59:42.213Z,61.41
2023-06-28T05:02:09.879Z,63.84
2023-06-28T05:04:40.427Z,60.10
2023-06-28T05:07:09.714Z,57.90
2023-06-28T05:09:38.225Z,59.18
2023-06-28T05:12:05.761Z,60.77
2023-06-28T05:14:32.563Z,63.51
2023-06-28T05:16:59.273Z,60.25
2023-06-28T05:19:26.370Z,56.48
2023-06-28T05:21:54.575Z,58.19
2023-06-28T05:24:21.685Z,60.88
2023-06-28T05:26:48.378Z,62.55
2023-06-28T05:29:14.971Z,59.25
2023-06-28T05:31:42.864Z,56.86
2023-06-28T05:34:11.633Z,59.17
2023-06-28T05:36:38.328Z,61.01
2023-06-28T05:39:04.981Z,62.79
2023-06-28T05:41:31.577Z,57.25
2023-06-28T05:43:58.161Z,56.52
2023-06-28T05:46:24.688Z,59.00
2023-06-28T05:48:51.465Z,60.67
2023-06-28T05:51:18.146Z,62.49
2023-06-28T05:53:44.926Z,60.48
2023-06-28T05:56:11.619Z,56.29
2023-06-28T05:58:38.300Z,58.09
2023-06-28T06:01:04.869Z,60.10
2023-06-28T06:03:31.606Z,61.39
2023-06-28T06:05:58.633Z,62.96
2023-06-28T06:08:25.232Z,59.70
2023-06-28T06:10:51.808Z,55.97
2023-06-28T06:13:38.927Z,57.35
2023-06-28T06:16:05.553Z,59.13
2023-06-28T06:18:32.180Z,61.34
2023-06-28T06:20:58.975Z,62.20
2023-06-28T06:23:25.713Z,63.10
2023-06-28T06:25:52.837Z,58.82
2023-06-28T06:28:19.427Z,56.54
2023-06-28T06:30:46.457Z,58.05
2023-06-28T06:33:13.587Z,59.99
2023-06-28T06:35:40.240Z,61.90
2023-06-28T06:38:06.806Z,62.24
2023-06-28T06:40:34.297Z,59.27
2023-06-28T06:43:00.839Z,59.02
2023-06-28T06:45:27.411Z,60.22
2023-06-28T06:47:54.142Z,62.01
2023-06-28T06:50:20.839Z,61.70
2023-06-28T06:52:47.459Z,57.36
2023-06-28T06:55:14.221Z,57.42
2023-06-28T06:57:40.921Z,59.50
2023-06-28T07:00:09.424Z,60.16
2023-06-28T07:02:36.411Z,61.48
2023-06-28T07:05:03.178Z,62.31
2023-06-28T07:07:29.849Z,61.71
2023-06-28T07:09:56.438Z,56.98
2023-06-28T07:12:23.073Z,57.87
2023-06-28T07:14:50.064Z,59.66
2023-06-28T07:17:17.119Z,60.57
2023-06-28T07:19:43.748Z,61.34
2023-06-28T07:22:10.410Z,61.74
2023-06-28T07:24:37.079Z,62.03
2023-06-28T07:27:04.052Z,61.70
2023-06-28T07:29:33.142Z,61.60
2023-06-28T07:31:59.788Z,61.79
2023-06-28T07:34:26.435Z,62.03
2023-06-28T07:36:53.042Z,62.12
2023-06-28T07:39:19.710Z,62.01
2023-06-28T07:41:46.284Z,57.51
2023-06-28T07:44:12.835Z,56.79
2023-06-28T07:46:39.516Z,57.42
2023-06-28T07:49:06.099Z,57.55
2023-06-28T07:51:32.678Z,58.62
2023-06-28T07:53:59.351Z,59.24
2023-06-28T07:56:25.924Z,59.29
2023-06-28T07:58:52.612Z,59.82
2023-06-28T08:01:19.203Z,59.81
2023-06-28T08:03:45.996Z,59.62
2023-06-28T08:06:12.681Z,59.37
2023-06-28T08:08:39.405Z,60.12
2023-06-28T08:11:06.244Z,59.27
2023-06-28T08:13:33.162Z,59.34
2023-06-28T08:15:59.929Z,58.97
2023-06-28T08:18:27.066Z,57.90
2023-06-28T08:20:53.892Z,56.97
2023-06-28T08:23:21.866Z,56.31
2023-06-28T08:25:48.507Z,56.07
2023-06-28T08:28:15.182Z,56.45
2023-06-28T08:30:41.823Z,56.59
2023-06-28T08:33:08.600Z,56.93
2023-06-28T08:35:35.305Z,55.96
2023-06-28T08:38:02.420Z,55.88
2023-06-28T08:40:30.471Z,56.04
2023-06-28T08:43:01.012Z,55.76
2023-06-28T08:45:31.116Z,55.99
2023-06-28T08:47:59.093Z,56.55
2023-06-28T08:50:26.524Z,55.64
2023-06-28T08:52:53.912Z,54.19
2023-06-28T08:55:21.976Z,52.99
2023-06-28T08:57:48.628Z,54.07
2023-06-28T09:00:15.636Z,54.90
2023-06-28T09:02:45.983Z,53.69
2023-06-28T09:05:13.144Z,53.57
2023-06-28T09:07:41.311Z,54.28
2023-06-28T09:10:11.305Z,54.12
2023-06-28T09:12:39.517Z,54.15
2023-06-28T09:15:07.139Z,53.56
2023-06-28T09:17:33.999Z,53.54
2023-06-28T09:20:08.293Z,54.84
2023-06-28T09:22:34.889Z,55.18
2023-06-28T09:25:05.876Z,54.67
2023-06-28T09:27:32.441Z,55.06
2023-06-28T09:30:21.878Z,55.77
2023-06-28T09:32:52.615Z,56.06
2023-06-28T09:35:20.670Z,55.42
2023-06-28T09:37:51.232Z,55.20
2023-06-28T09:40:18.572Z,54.90
2023-06-28T09:42:47.418Z,54.29
2023-06-28T09:45:38.096Z,53.02
2023-06-28T09:48:05.384Z,50.71
2023-06-28T09:50:41.903Z,50.81
2023-06-28T09:53:14.548Z,51.61
2023-06-28T09:55:43.348Z,53.13
2023-06-28T09:58:15.403Z,54.95
2023-06-28T10:00:43.638Z,56.94
2023-06-28T10:03:12.367Z,56.76
2023-06-28T10:05:42.411Z,58.30
2023-06-28T10:08:14.557Z,62.13
2023-06-28T10:10:43.137Z,63.02
2023-06-28T10:13:12.895Z,60.10
2023-06-28T10:15:48.837Z,58.58
2023-06-28T10:18:16.584Z,60.79
2023-06-28T10:20:43.826Z,62.88
2023-06-28T10:23:13.763Z,61.10
2023-06-28T10:25:42.192Z,58.75
2023-06-28T10:28:09.982Z,58.13
2023-06-28T10:30:39.749Z,57.21
2023-06-28T10:33:07.307Z,58.84
2023-06-28T10:35:34.796Z,60.71
2023-06-28T10:38:01.615Z,61.59
2023-06-28T10:40:28.720Z,59.15
2023-06-28T10:42:55.438Z,55.66
2023-06-28T10:45:35.621Z,54.54
2023-06-28T10:48:03.478Z,54.71
2023-06-28T10:50:41.646Z,55.61
2023-06-28T10:53:20.279Z,56.44
2023-06-28T10:56:15.082Z,55.57
2023-06-28T10:58:42.926Z,52.84
2023-06-28T11:01:14.022Z,53.19
2023-06-28T11:03:44.981Z,52.92
2023-06-28T11:06:13.358Z,53.83
2023-06-28T11:08:43.782Z,53.69
2023-06-28T11:11:31.727Z,53.80
2023-06-28T11:13:58.301Z,53.21
2023-06-28T11:16:25.515Z,53.60
2023-06-28T11:18:53.311Z,53.02
2023-06-28T11:21:25.170Z,52.17
2023-06-28T11:23:56.777Z,52.19
2023-06-28T11:26:42.787Z,52.30
2023-06-28T11:29:17.480Z,50.12
2023-06-28T11:31:57.306Z,46.26
2023-06-28T11:34:25.856Z,48.14
2023-06-28T11:36:54.195Z,50.64
2023-06-28T11:39:22.862Z,53.21
2023-06-28T11:41:49.978Z,54.99
2023-06-28T11:44:16.746Z,56.26
2023-06-28T11:46:46.890Z,57.35
2023-06-28T11:49:17.117Z,58.12
2023-06-28T11:51:44.686Z,58.51
2023-06-28T11:54:12.669Z,58.80
2023-06-28T11:56:39.537Z,59.25
2023-06-28T11:59:16.453Z,59.54
2023-06-28T12:01:44.642Z,59.70
2023-06-28T12:04:22.499Z,59.61
2023-06-28T12:06:52.765Z,60.25
2023-06-28T12:09:22.225Z,59.70
2023-06-28T12:12:03.913Z,59.84
2023-06-28T12:14:49.461Z,59.06
2023-06-28T12:17:17.762Z,57.85
2023-06-28T12:19:44.606Z,56.64
2023-06-28T12:22:11.326Z,55.80
2023-06-28T12:24:38.515Z,54.78
2023-06-28T12:27:07.191Z,54.05
2023-06-28T12:29:36.088Z,53.22
2023-06-28T12:32:08.355Z,53.34
2023-06-28T12:34:38.134Z,52.41
2023-06-28T12:37:11.036Z,51.89
2023-06-28T12:39:40.334Z,52.24
2023-06-28T12:42:11.123Z,53.13
2023-06-28T12:44:51.999Z,53.83
2023-06-28T12:47:19.444Z,51.76
2023-06-28T12:49:47.504Z,49.29
2023-06-28T12:52:14.624Z,47.50
2023-06-28T12:54:41.778Z,47.64
2023-06-28T12:57:09.045Z,46.90
2023-06-28T12:59:36.705Z,47.70
2023-06-28T13:02:03.723Z,47.97
2023-06-28T13:04:35.336Z,47.54
2023-06-28T13:07:04.383Z,46.73
2023-06-28T13:09:31.629Z,45.60
2023-06-28T13:11:58.516Z,44.21
2023-06-28T13:14:25.131Z,43.11
2023-06-28T13:16:52.265Z,43.37
2023-06-28T13:19:19.408Z,42.36
2023-06-28T13:21:46.825Z,39.41
2023-06-28T13:24:13.489Z,39.02
2023-06-28T13:26:40.313Z,41.37
2023-06-28T13:29:06.926Z,43.27
2023-06-28T13:31:33.554Z,43.85
2023-06-28T13:34:00.246Z,43.93
2023-06-28T13:36:27.266Z,43.94
2023-06-28T13:38:54.608Z,43.69
2023-06-28T13:41:21.300Z,42.91
2023-06-28T13:43:47.934Z,42.76
2023-06-28T13:46:15.780Z,42.97
2023-06-28T13:48:42.397Z,43.49
2023-06-28T13:51:08.966Z,43.59
2023-06-28T13:53:35.571Z,43.83
2023-06-28T13:56:02.219Z,44.65
2023-06-28T13:58:28.985Z,45.46
2023-06-28T14:00:57.350Z,46.05
2023-06-28T14:03:24.881Z,45.85
2023-06-28T14:05:52.302Z,46.44
2023-06-28T14:08:19.191Z,45.48
2023-06-28T14:10:47.165Z,45.88
2023-06-28T14:13:15.334Z,47.03
2023-06-28T14:15:43.185Z,48.09
2023-06-28T14:18:11.269Z,48.65
2023-06-28T14:20:37.871Z,50.29
2023-06-28T14:23:04.501Z,51.73
2023-06-28T14:25:31.173Z,52.94
2023-06-28T14:27:58.719Z,54.24
2023-06-28T14:30:25.472Z,54.83
2023-06-28T14:32:53.052Z,55.37
2023-06-28T14:35:22.043Z,56.42
2023-06-28T14:37:50.222Z,56.94
2023-06-28T14:40:17.296Z,57.12
2023-06-28T14:42:43.911Z,57.24
2023-06-28T14:45:13.972Z,57.77
2023-06-28T14:47:42.580Z,57.63
2023-06-28T14:50:10.540Z,57.57
2023-06-28T14:52:38.326Z,58.15
2023-06-28T14:55:05.708Z,58.58
2023-06-28T14:57:32.409Z,58.94
2023-06-28T14:59:59.046Z,59.23
2023-06-28T15:02:25.696Z,59.98
2023-06-28T15:04:52.590Z,60.48
2023-06-28T15:07:19.468Z,61.07
2023-06-28T15:09:46.277Z,61.91
2023-06-28T15:12:13.302Z,62.08
2023-06-28T15:14:40.772Z,62.46
2023-06-28T15:17:07.997Z,60.03
2023-06-28T15:19:34.835Z,56.29
2023-06-28T15:22:01.428Z,57.74
2023-06-28T15:24:28.109Z,59.70
2023-06-28T15:26:57.319Z,60.93
2023-06-28T15:29:26.215Z,62.46
2023-06-28T15:31:53.612Z,59.72
2023-06-28T15:34:20.300Z,57.80
2023-06-28T15:36:47.011Z,59.27
2023-06-28T15:39:13.691Z,60.85
2023-06-28T15:41:41.690Z,62.33
2023-06-28T15:44:09.424Z,63.23
2023-06-28T15:46:36.092Z,60.09
2023-06-28T15:49:04.124Z,58.91
2023-06-28T15:51:32.079Z,61.16
2023-06-28T15:53:58.685Z,62.96
2023-06-28T15:56:25.316Z,61.68
2023-06-28T15:58:52.053Z,59.23
2023-06-28T16:01:19.629Z,61.38
2023-06-28T16:03:46.865Z,63.57
2023-06-28T16:06:13.723Z,61.94
2023-06-28T16:08:40.676Z,59.52
2023-06-28T16:11:07.325Z,61.95
2023-06-28T16:13:34.042Z,63.76
2023-06-28T16:16:03.436Z,61.53
2023-06-28T16:18:30.566Z,59.62
2023-06-28T16:20:57.921Z,59.44
2023-06-28T16:23:25.311Z,63.42
2023-06-28T16:25:51.983Z,63.42
2023-06-28T16:28:18.777Z,58.99
2023-06-28T16:30:45.786Z,60.27
2023-06-28T16:33:12.564Z,63.35
2023-06-28T16:35:45.129Z,62.67
2023-06-28T16:38:14.385Z,59.50
2023-06-28T16:40:41.259Z,59.07
2023-06-28T16:43:08.820Z,61.98
2023-06-28T16:45:35.577Z,63.80
2023-06-28T16:48:02.553Z,59.70
2023-06-28T16:50:29.427Z,60.50
2023-06-28T16:52:56.144Z,64.50
2023-06-28T16:55:22.792Z,63.19
2023-06-28T16:57:50.930Z,61.08
2023-06-28T17:00:18.013Z,60.74
2023-06-28T17:02:48.848Z,60.92
2023-06-28T17:05:16.087Z,60.32
2023-06-28T17:07:42.923Z,59.29
2023-06-28T17:10:12.475Z,62.77
2023-06-28T17:12:43.608Z,65.23
2023-06-28T17:15:11.890Z,62.67
2023-06-28T17:17:39.370Z,61.54
2023-06-28T17:20:07.357Z,61.17
2023-06-28T17:22:35.783Z,61.93
2023-06-28T17:25:05.312Z,59.63
2023-06-28T17:27:33.051Z,61.02
2023-06-28T17:29:59.805Z,65.13
2023-06-28T17:32:27.121Z,64.40
2023-06-28T17:34:54.008Z,61.46
2023-06-28T17:37:20.559Z,61.53
2023-06-28T17:39:47.134Z,60.12
2023-06-28T17:42:13.782Z,59.49
2023-06-28T17:44:40.399Z,61.69
2023-06-28T17:47:07.135Z,67.14
2023-06-28T17:49:33.756Z,64.67
2023-06-28T17:52:00.326Z,61.47
2023-06-28T17:54:28.737Z,60.19
2023-06-28T17:56:55.320Z,58.56
2023-06-28T17:59:21.916Z,59.43
2023-06-28T18:01:48.563Z,64.16
2023-06-28T18:04:15.498Z,64.20
2023-06-28T18:06:42.479Z,62.87
2023-06-28T18:09:09.106Z,61.62
2023-06-28T18:11:35.818Z,60.49
2023-06-28T18:14:02.669Z,58.85
2023-06-28T18:16:29.314Z,61.86
2023-06-28T18:18:56.025Z,65.27
2023-06-28T18:21:22.575Z,63.53
2023-06-28T18:23:49.181Z,60.73
2023-06-28T18:26:16.885Z,60.97
2023-06-28T18:28:43.807Z,61.35
2023-06-28T18:31:10.447Z,59.92
2023-06-28T18:33:37.087Z,58.05
2023-06-28T18:36:03.865Z,61.75
2023-06-28T18:38:30.626Z,65.61
2023-06-28T18:40:58.221Z,64.48
2023-06-28T18:43:24.911Z,62.64
2023-06-28T18:45:51.632Z,60.80
2023-06-28T18:48:18.307Z,60.69
2023-06-28T18:50:53.579Z,60.39
2023-06-28T18:53:20.839Z,59.79
2023-06-28T18:55:48.279Z,59.38
2023-06-28T18:58:33.770Z,63.85
2023-06-28T19:01:00.690Z,65.57
2023-06-28T19:03:27.888Z,63.39
2023-06-28T19:05:55.245Z,61.64
2023-06-28T19:08:22.669Z,61.55
2023-06-28T19:10:50.249Z,60.63
2023-06-28T19:13:20.877Z,60.66
2023-06-28T19:15:48.065Z,61.41
2023-06-28T19:18:15.190Z,61.14
2023-06-28T19:20:42.215Z,61.29
2023-06-28T19:23:09.650Z,60.48
2023-06-28T19:25:36.623Z,59.65
2023-06-28T19:28:03.661Z,62.91
2023-06-28T19:30:30.260Z,65.26
2023-06-28T19:32:57.080Z,62.90
2023-06-28T19:35:24.514Z,63.05
2023-06-28T19:37:52.169Z,62.12
2023-06-28T19:40:19.029Z,61.48
2023-06-28T19:42:45.708Z,61.57
2023-06-28T19:45:12.430Z,61.32
2023-06-28T19:47:39.287Z,61.16
2023-06-28T19:50:07.253Z,60.79
2023-06-28T19:52:34.507Z,61.40
2023-06-28T19:55:01.402Z,62.08
2023-06-28T19:57:28.085Z,62.38
2023-06-28T19:59:54.655Z,62.13
2023-06-28T20:02:23.500Z,62.18
2023-06-28T20:04:50.410Z,62.08
2023-06-28T20:07:17.557Z,62.00
2023-06-28T20:09:44.424Z,62.45
2023-06-28T20:12:11.819Z,62.70
2023-06-28T20:14:38.877Z,61.38
2023-06-28T20:17:05.635Z,62.08
2023-06-28T20:19:32.210Z,62.29
2023-06-28T20:21:58.811Z,62.43
2023-06-28T20:24:25.441Z,62.78
2023-06-28T20:26:52.295Z,62.01
2023-06-28T20:29:18.904Z,62.36
2023-06-28T20:31:45.640Z,61.40
2023-06-28T20:34:12.428Z,61.98
2023-06-28T20:36:39.004Z,61.84
2023-06-28T20:39:05.644Z,61.52
2023-06-28T20:41:32.225Z,61.27
2023-06-28T20:43:58.868Z,60.04
2023-06-28T20:46:25.508Z,60.74
2023-06-28T20:48:52.239Z,60.95
2023-06-28T20:51:20.593Z,60.58
2023-06-28T20:53:47.313Z,60.57
2023-06-28T20:56:13.973Z,61.20
2023-06-28T20:58:41.932Z,60.96
2023-06-28T21:01:09.329Z,60.75
2023-06-28T21:03:36.267Z,62.02
2023-06-28T21:06:03.024Z,60.99
2023-06-28T21:08:29.706Z,62.03
2023-06-28T21:10:56.353Z,61.77
2023-06-28T21:13:22.999Z,62.56
2023-06-28T21:15:50.005Z,63.09
2023-06-28T21:18:17.111Z,63.52
2023-06-28T21:20:43.868Z,62.67
2023-06-28T21:23:10.506Z,61.27
2023-06-28T21:25:41.151Z,60.31
2023-06-28T21:28:08.322Z,61.55
2023-06-28T21:30:37.319Z,62.03
2023-06-28T21:33:04.591Z,61.70
2023-06-28T21:35:31.819Z,61.41
2023-06-28T21:37:58.456Z,61.66
2023-06-28T21:40:25.093Z,61.41
2023-06-28T21:42:51.757Z,61.23
2023-06-28T21:45:18.400Z,61.55
2023-06-28T21:47:45.010Z,61.31
2023-06-28T21:50:11.661Z,61.56
2023-06-28T21:52:38.291Z,61.53
2023-06-28T21:55:05.432Z,60.92
2023-06-28T21:57:32.086Z,61.34
2023-06-28T21:59:59.930Z,60.91
2023-06-28T22:02:26.760Z,61.28
2023-06-28T22:04:53.648Z,61.38
2023-06-28T22:07:21.825Z,61.48
2023-06-28T22:09:54.028Z,61.38
2023-06-28T22:12:21.371Z,61.88
2023-06-28T22:14:48.114Z,61.43
2023-06-28T22:17:15.089Z,61.44
2023-06-28T22:19:42.013Z,61.37
2023-06-28T22:22:09.981Z,61.08
2023-06-28T22:24:38.056Z,60.70
2023-06-28T22:27:04.824Z,60.93
2023-06-28T22:29:31.532Z,61.43
2023-06-28T22:31:58.262Z,61.37
2023-06-28T22:34:24.999Z,61.20
2023-06-28T22:36:51.776Z,61.84
2023-06-28T22:39:19.105Z,62.78
2023-06-28T22:41:45.850Z,63.13
2023-06-28T22:44:13.020Z,62.67
2023-06-28T22:46:39.761Z,61.59
2023-06-28T22:49:06.452Z,61.01
2023-06-28T22:51:39.658Z,61.58
2023-06-28T22:54:07.664Z,62.85
2023-06-28T22:56:36.215Z,62.50
2023-06-28T22:59:04.491Z,62.51
2023-06-28T23:01:31.534Z,61.45
2023-06-28T23:03:58.770Z,61.63
2023-06-28T23:06:28.460Z,62.21
2023-06-28T23:08:55.957Z,63.09
2023-06-28T23:11:27.709Z,63.71
2023-06-28T23:13:55.036Z,64.98
2023-06-28T23:16:23.632Z,65.30
2023-06-28T23:18:53.034Z,65.03
2023-06-28T23:21:22.241Z,63.89
2023-06-28T23:23:49.206Z,63.03
2023-06-28T23:26:18.429Z,62.71
2023-06-28T23:28:45.624Z,62.18
2023-06-28T23:31:14.036Z,61.60
2023-06-28T23:33:42.498Z,62.10
2023-06-28T23:36:10.455Z,62.95
2023-06-28T23:38:39.570Z,62.41
2023-06-28T23:41:07.518Z,62.07
2023-06-28T23:43:35.071Z,61.20
2023-06-28T23:46:03.893Z,61.58
2023-06-28T23:48:35.331Z,62.24
2023-06-28T23:51:06.877Z,61.50
2023-06-28T23:53:42.978Z,61.86
2023-06-28T23:56:11.206Z,62.01
2023-06-28T23:58:40.398Z,61.84
